Time;durP1;ratioP1;P1;durP2;ratioP2;P2;SDS_P1;SDS_P2;PMS_P1;PMS_P2;Temp;Humidity;BMP_temperature;BMP_pressure;BME280_temperature;BME280_humidity;BME280_pressure;Samples;Min_cycle;Max_cycle;Signal;HPM_P1;HPM_P2
2022/05/11 00:01:56;;;;;;;5.90;2.00;;;17.10;66.30;;;;;;5074517;28;20056;-80
2022/05/11 00:04:24;;;;;;;9.38;2.40;;;17.00;66.40;;;;;;5073830;28;20044;-80
2022/05/11 00:06:51;;;;;;;5.03;2.17;;;17.00;66.50;;;;;;5073611;28;20044;-80
2022/05/11 00:09:18;;;;;;;6.55;2.10;;;16.90;66.50;;;;;;5073407;28;20509;-80
2022/05/11 00:11:45;;;;;;;6.38;2.05;;;16.90;66.60;;;;;;5073869;28;20106;-80
2022/05/11 00:14:12;;;;;;;9.30;2.17;;;16.90;66.70;;;;;;5073794;28;20049;-80
2022/05/11 00:16:59;;;;;;;8.88;2.58;;;16.80;66.90;;;;;;5073971;28;20106;-80
2022/05/11 00:19:27;;;;;;;6.82;2.20;;;16.70;66.90;;;;;;5073260;28;20048;-80
2022/05/11 00:22:13;;;;;;;6.53;2.40;;;16.70;67.10;;;;;;5073527;28;20044;-80
2022/05/11 00:24:39;;;;;;;5.47;2.10;;;16.70;67.10;;;;;;5072225;28;20044;-80
2022/05/11 00:27:06;;;;;;;7.60;2.63;;;16.60;67.30;;;;;;5073392;28;20110;-80
2022/05/11 00:29:34;;;;;;;7.05;2.47;;;16.60;67.40;;;;;;5057441;28;20044;-80
2022/05/11 00:32:01;;;;;;;6.25;2.40;;;16.50;67.40;;;;;;5074060;28;20056;-80
2022/05/11 00:34:27;;;;;;;6.97;2.58;;;16.40;67.50;;;;;;5073269;28;20418;-80
2022/05/11 00:36:54;;;;;;;7.95;3.10;;;16.40;67.60;;;;;;5072589;28;20506;-80
2022/05/11 00:39:21;;;;;;;7.50;2.30;;;16.40;67.70;;;;;;5073027;28;20502;-80
2022/05/11 00:41:48;;;;;;;7.72;2.75;;;16.40;67.80;;;;;;5073249;28;20106;-80
2022/05/11 00:44:16;;;;;;;6.32;2.38;;;16.30;67.90;;;;;;5073110;28;20049;-80
2022/05/11 00:46:57;;;;;;;5.68;2.63;;;16.30;68.00;;;;;;5071736;28;20051;-80
2022/05/11 00:50:08;;;;;;;6.60;2.40;;;16.30;68.10;;;;;;5072800;28;20391;-80
2022/05/11 00:52:43;;;;;;;7.47;2.60;;;16.20;68.20;;;;;;5061941;28;20118;-80
2022/05/11 00:55:30;;;;;;;6.28;2.33;;;16.20;68.20;;;;;;5072806;28;20052;-80
2022/05/11 00:58:03;;;;;;;6.05;1.92;;;16.20;68.30;;;;;;5072618;28;20086;-80
2022/05/11 01:00:31;;;;;;;7.40;2.50;;;16.10;68.40;;;;;;5072743;28;20086;-80
2022/05/11 01:03:09;;;;;;;10.75;2.95;;;16.10;68.40;;;;;;5072765;28;20399;-80
2022/05/11 01:05:36;;;;;;;5.85;2.45;;;16.00;68.50;;;;;;5057218;28;20041;-80
2022/05/11 01:08:03;;;;;;;7.40;2.38;;;16.00;68.50;;;;;;5072935;28;20078;-80
2022/05/11 01:10:32;;;;;;;5.63;2.40;;;16.00;68.50;;;;;;5071945;28;20063;-80
2022/05/11 01:13:04;;;;;;;5.85;2.38;;;16.00;68.60;;;;;;5072391;28;20040;-80
2022/05/11 01:15:32;;;;;;;6.93;2.83;;;15.90;68.70;;;;;;5072517;28;20049;-80
2022/05/11 01:18:02;;;;;;;4.72;2.20;;;15.90;68.70;;;;;;5072382;28;20048;-80
2022/05/11 01:20:33;;;;;;;7.43;2.72;;;15.90;68.70;;;;;;5071942;28;20040;-80
2022/05/11 01:23:09;;;;;;;6.13;2.50;;;15.90;68.80;;;;;;5072938;28;20057;-80
2022/05/11 01:25:36;;;;;;;5.82;2.38;;;15.90;68.80;;;;;;5072414;28;20418;-80
2022/05/11 01:28:09;;;;;;;5.43;2.42;;;15.90;68.90;;;;;;5072038;28;20049;-80
2022/05/11 01:30:41;;;;;;;7.15;2.30;;;15.80;68.90;;;;;;5072227;28;20045;-81
2022/05/11 01:33:14;;;;;;;7.47;2.95;;;15.70;68.90;;;;;;5072168;28;20498;-80
2022/05/11 01:36:03;;;;;;;5.35;2.47;;;15.70;69.00;;;;;;5071792;28;20428;-80
2022/05/11 01:38:45;;;;;;;12.38;3.38;;;15.70;69.00;;;;;;5072030;28;20045;-80
2022/05/11 01:41:34;;;;;;;7.57;2.35;;;15.70;69.10;;;;;;5069487;28;20495;-80
2022/05/11 01:44:07;;;;;;;8.38;2.55;;;15.60;69.10;;;;;;5026234;28;20618;-80
2022/05/11 01:46:35;;;;;;;5.78;2.38;;;15.60;69.10;;;;;;5027538;28;20054;-81
2022/05/11 01:49:04;;;;;;;9.00;3.13;;;15.50;69.20;;;;;;5021733;28;20733;-80
2022/05/11 01:51:30;;;;;;;5.60;2.30;;;15.50;69.20;;;;;;5024996;28;20584;-80
2022/05/11 01:53:58;;;;;;;8.57;3.13;;;15.50;69.30;;;;;;5026745;28;20574;-80
2022/05/11 01:56:26;;;;;;;7.00;2.80;;;15.50;69.30;;;;;;5028623;28;20050;-80
2022/05/11 01:58:54;;;;;;;9.32;2.90;;;15.40;69.40;;;;;;5030309;28;20061;-80
2022/05/11 02:01:23;;;;;;;6.65;2.75;;;15.40;69.40;;;;;;5025129;28;20103;-80
2022/05/11 02:03:50;;;;;;;6.88;2.80;;;15.40;69.40;;;;;;5024852;28;20435;-80
2022/05/11 02:09:04;;;;;;;6.25;2.72;;;15.40;69.40;;;;;;5029537;28;20474;-80
2022/05/11 02:11:32;;;;;;;7.88;2.78;;;15.30;69.40;;;;;;5029617;28;20447;-80
2022/05/11 02:13:59;;;;;;;6.97;2.90;;;15.30;69.50;;;;;;5030110;28;20057;-80
2022/05/11 02:16:27;;;;;;;9.00;3.40;;;15.30;69.50;;;;;;5025022;28;20089;-80
2022/05/11 02:18:57;;;;;;;8.43;3.05;;;15.30;69.50;;;;;;5024511;28;20045;-80
2022/05/11 02:21:24;;;;;;;7.63;2.55;;;15.20;69.60;;;;;;5054626;28;20053;-80
2022/05/11 02:23:51;;;;;;;8.32;3.08;;;15.20;69.60;;;;;;5071630;28;20047;-80
2022/05/11 02:26:19;;;;;;;6.05;3.10;;;15.20;69.60;;;;;;5071658;28;20056;-80
2022/05/11 02:28:50;;;;;;;5.55;2.70;;;15.20;69.60;;;;;;5070087;28;20056;-80
2022/05/11 02:31:18;;;;;;;8.30;2.90;;;15.10;69.70;;;;;;5071460;28;20063;-80
2022/05/11 02:33:46;;;;;;;7.43;2.95;;;15.10;69.70;;;;;;5071133;28;20110;-80
2022/05/11 02:36:13;;;;;;;5.03;2.88;;;15.10;69.70;;;;;;5071345;28;20052;-79
2022/05/11 02:38:42;;;;;;;7.07;2.90;;;15.00;69.70;;;;;;5071340;28;20057;-80
2022/05/11 02:41:09;;;;;;;6.60;3.13;;;15.00;69.70;;;;;;5071574;28;20051;-79
2022/05/11 02:43:36;;;;;;;5.35;2.90;;;15.00;69.70;;;;;;5071670;28;20045;-80
2022/05/11 02:46:03;;;;;;;6.03;2.60;;;15.00;69.70;;;;;;5071299;28;20160;-80
2022/05/11 02:48:33;;;;;;;8.52;3.20;;;14.90;69.70;;;;;;5070790;28;20083;-80
2022/05/11 02:51:01;;;;;;;5.97;2.80;;;14.90;69.60;;;;;;5071484;28;20084;-79
2022/05/11 02:53:29;;;;;;;7.40;2.72;;;14.90;69.60;;;;;;5071373;28;20056;-79
2022/05/11 02:55:57;;;;;;;7.10;3.25;;;14.90;69.60;;;;;;5071861;28;20041;-80
2022/05/11 02:58:27;;;;;;;8.43;2.90;;;14.90;69.60;;;;;;5071153;28;20521;-79
2022/05/11 03:00:58;;;;;;;6.57;2.70;;;14.80;69.60;;;;;;5071098;28;20056;-80
2022/05/11 03:03:26;;;;;;;6.18;3.30;;;14.80;69.70;;;;;;5070812;28;20059;-80
2022/05/11 03:05:53;;;;;;;6.72;3.08;;;14.70;69.70;;;;;;5071331;28;20044;-79
2022/05/11 03:08:20;;;;;;;6.57;2.90;;;14.70;69.70;;;;;;5071045;28;20056;-79
2022/05/11 03:10:48;;;;;;;5.32;2.72;;;14.70;69.70;;;;;;5071627;28;20049;-80
2022/05/11 03:13:16;;;;;;;6.55;3.05;;;14.60;69.70;;;;;;5070975;28;20455;-79
2022/05/11 03:15:44;;;;;;;5.85;2.70;;;14.60;69.70;;;;;;5071009;28;20434;-80
2022/05/11 03:18:12;;;;;;;5.70;2.80;;;14.60;69.70;;;;;;5070282;28;20430;-80
2022/05/11 03:20:39;;;;;;;9.50;3.03;;;14.60;69.70;;;;;;5071053;28;20123;-80
2022/05/11 03:23:06;;;;;;;6.30;2.70;;;14.50;69.70;;;;;;5071440;28;20086;-79
2022/05/11 03:25:33;;;;;;;7.60;2.53;;;14.50;69.70;;;;;;5070650;28;20094;-80
2022/05/11 03:28:19;;;;;;;5.57;2.63;;;14.50;69.70;;;;;;5070923;28;20098;-80
2022/05/11 03:30:46;;;;;;;5.93;3.00;;;14.40;69.70;;;;;;5070576;28;20098;-80
2022/05/11 03:36:18;;;;;;;6.10;3.05;;;14.40;69.70;;;;;;5032277;28;20482;-79
2022/05/11 03:38:45;;;;;;;6.90;3.10;;;14.40;69.70;;;;;;5017974;28;20044;-80
2022/05/11 03:41:12;;;;;;;7.05;3.38;;;14.40;69.70;;;;;;5032345;28;20053;-79
2022/05/11 03:43:40;;;;;;;6.70;2.85;;;14.30;69.80;;;;;;5032643;28;20049;-79
2022/05/11 03:46:13;;;;;;;4.85;3.03;;;14.30;69.80;;;;;;5031747;28;20085;-80
2022/05/11 03:48:40;;;;;;;7.05;3.42;;;14.30;69.80;;;;;;5031985;28;20053;-79
2022/05/11 03:51:07;;;;;;;6.93;3.33;;;14.20;69.80;;;;;;5032110;28;20049;-79
2022/05/11 03:53:36;;;;;;;8.23;3.30;;;14.20;69.80;;;;;;5016277;28;20050;-79
2022/05/11 03:56:03;;;;;;;7.18;3.28;;;14.10;69.90;;;;;;5028523;28;20542;-79
2022/05/11 03:58:30;;;;;;;7.53;3.53;;;14.10;69.90;;;;;;5031929;28;20057;-79
2022/05/11 04:00:57;;;;;;;6.50;3.03;;;14.10;70.00;;;;;;5031364;28;20546;-79
2022/05/11 04:03:23;;;;;;;5.97;3.65;;;14.10;70.10;;;;;;5031836;28;20053;-79
2022/05/11 04:05:52;;;;;;;8.25;3.47;;;14.00;70.20;;;;;;5032002;28;20037;-80
2022/05/11 04:08:19;;;;;;;7.90;3.13;;;14.00;70.20;;;;;;5031857;28;20057;-79
2022/05/11 04:10:46;;;;;;;8.95;3.55;;;14.00;70.30;;;;;;5030254;28;20046;-79
2022/05/11 04:13:13;;;;;;;9.27;3.55;;;14.00;70.30;;;;;;5053615;28;20052;-79
2022/05/11 04:15:40;;;;;;;8.45;3.97;;;13.90;70.40;;;;;;5073374;28;20036;-80
2022/05/11 04:18:07;;;;;;;9.27;3.80;;;13.90;70.50;;;;;;5073624;28;20460;-79
2022/05/11 04:20:34;;;;;;;5.35;2.90;;;13.90;70.50;;;;;;5057902;28;20559;-79
2022/05/11 04:23:01;;;;;;;6.35;3.03;;;13.90;70.60;;;;;;5069992;28;20052;-80
2022/05/11 04:25:29;;;;;;;6.25;3.35;;;13.90;70.60;;;;;;5073382;28;20109;-80
2022/05/11 04:27:55;;;;;;;8.77;3.67;;;13.80;70.70;;;;;;5073377;28;20044;-79
2022/05/11 04:30:26;;;;;;;4.93;3.10;;;13.80;70.70;;;;;;5073014;28;20560;-80
2022/05/11 04:32:53;;;;;;;9.13;3.25;;;13.80;70.80;;;;;;5073366;28;20114;-79
2022/05/11 04:35:20;;;;;;;7.15;3.45;;;13.80;70.80;;;;;;5073356;28;20044;-79
2022/05/11 04:37:47;;;;;;;6.68;3.45;;;13.80;70.90;;;;;;5073697;28;20048;-80
2022/05/11 04:40:15;;;;;;;6.57;3.50;;;13.70;70.90;;;;;;5073046;28;20045;-80
2022/05/11 04:42:44;;;;;;;7.65;3.92;;;13.70;71.00;;;;;;5073116;28;20045;-80
2022/05/11 04:45:12;;;;;;;7.32;3.40;;;13.70;71.00;;;;;;5072658;28;20575;-80
2022/05/11 04:47:39;;;;;;;7.03;3.25;;;13.70;71.00;;;;;;5073060;28;20461;-79
2022/05/11 04:50:07;;;;;;;8.32;4.00;;;13.70;71.10;;;;;;5073263;28;20060;-79
2022/05/11 04:52:34;;;;;;;6.60;3.35;;;13.60;71.10;;;;;;5072880;28;20137;-80
2022/05/11 04:55:02;;;;;;;7.05;3.35;;;13.70;71.20;;;;;;5072786;28;20490;-80
2022/05/11 04:57:29;;;;;;;8.32;3.83;;;13.60;71.30;;;;;;5072677;28;20121;-79
2022/05/11 04:59:56;;;;;;;11.18;3.95;;;13.60;71.30;;;;;;5072535;28;20117;-79
2022/05/11 05:02:25;;;;;;;6.90;3.58;;;13.60;71.30;;;;;;5072702;28;20053;-80
2022/05/11 05:04:56;;;;;;;6.03;3.42;;;13.60;71.40;;;;;;5073327;28;20413;-79
2022/05/11 05:07:42;;;;;;;9.20;3.55;;;13.60;71.50;;;;;;5072468;28;20044;-79
2022/05/11 05:10:12;;;;;;;7.50;3.50;;;13.60;71.50;;;;;;5072585;28;20044;-80
2022/05/11 05:12:41;;;;;;;8.60;3.60;;;13.60;71.60;;;;;;5072163;28;20056;-80
2022/05/11 05:15:13;;;;;;;8.00;3.42;;;13.60;71.60;;;;;;5072489;28;20498;-79
2022/05/11 05:17:40;;;;;;;6.90;3.53;;;13.50;71.70;;;;;;5072296;28;20060;-79
2022/05/11 05:20:08;;;;;;;8.18;3.30;;;13.50;71.70;;;;;;5072557;28;20102;-80
2022/05/11 05:22:35;;;;;;;6.95;3.25;;;13.50;71.70;;;;;;5072529;28;20052;-80
2022/05/11 05:25:03;;;;;;;9.05;3.72;;;13.50;71.80;;;;;;5072295;28;20499;-80
2022/05/11 05:27:31;;;;;;;6.22;3.50;;;13.50;71.80;;;;;;5069408;28;20567;-79
2022/05/11 05:32:44;;;;;;;5.75;3.05;;;13.50;71.90;;;;;;5057719;28;20094;-80
2022/05/11 05:35:16;;;;;;;6.25;2.95;;;13.50;72.00;;;;;;5072489;28;20117;-80
2022/05/11 05:37:44;;;;;;;7.40;3.10;;;13.60;72.00;;;;;;5072019;28;20052;-80
2022/05/11 05:40:12;;;;;;;7.30;3.40;;;13.50;72.10;;;;;;5071472;28;20093;-81
2022/05/11 05:45:30;;;;;;;6.95;2.97;;;13.60;72.20;;;;;;5075179;28;20051;-80
2022/05/11 05:47:56;;;;;;;8.95;2.83;;;13.60;72.20;;;;;;5071688;28;20056;-79
2022/05/11 05:50:23;;;;;;;7.63;2.88;;;13.60;72.20;;;;;;5069488;28;20040;-80
2022/05/11 05:52:52;;;;;;;7.13;2.70;;;13.60;72.20;;;;;;5071972;28;20064;-81
2022/05/11 05:55:21;;;;;;;7.78;2.58;;;13.60;72.20;;;;;;5073860;28;20044;-80
2022/05/11 05:57:48;;;;;;;6.10;2.60;;;13.60;72.20;;;;;;5071484;28;20117;-80
2022/05/11 06:00:15;;;;;;;7.18;2.40;;;13.70;72.20;;;;;;5072506;28;20124;-81
2022/05/11 06:03:01;;;;;;;6.15;2.67;;;13.70;72.20;;;;;;5068326;28;20415;-80
2022/05/11 06:05:28;;;;;;;8.48;2.60;;;13.80;72.20;;;;;;5069398;28;20052;-80
2022/05/11 06:07:56;;;;;;;8.02;2.67;;;13.80;72.20;;;;;;5075595;28;20048;-79
2022/05/11 06:10:25;;;;;;;6.85;2.22;;;13.70;72.10;;;;;;5072020;28;20052;-80
2022/05/11 06:12:52;;;;;;;8.23;2.50;;;13.90;72.10;;;;;;5072188;28;20082;-80
2022/05/11 06:15:19;;;;;;;7.32;2.25;;;13.90;72.00;;;;;;5072027;28;20044;-79
2022/05/11 06:17:46;;;;;;;9.45;2.35;;;13.90;72.00;;;;;;5069093;28;20518;-80
2022/05/11 06:20:13;;;;;;;9.60;2.55;;;13.90;71.90;;;;;;5072428;28;20048;-80
2022/05/11 06:22:41;;;;;;;9.48;1.92;;;13.90;71.90;;;;;;5085687;28;20062;-79
2022/05/11 06:25:08;;;;;;;8.27;2.20;;;14.00;71.80;;;;;;5076379;28;20498;-79
2022/05/11 06:27:36;;;;;;;8.70;2.03;;;14.10;71.70;;;;;;5073387;28;20506;-79
2022/05/11 06:30:04;;;;;;;9.85;2.10;;;14.10;71.70;;;;;;5072949;28;20097;-79
2022/05/11 06:32:32;;;;;;;9.90;2.38;;;14.20;71.60;;;;;;5068887;28;20051;-79
2022/05/11 06:34:59;;;;;;;6.45;2.05;;;14.20;71.50;;;;;;5075938;28;20048;-80
2022/05/11 06:37:26;;;;;;;8.35;2.28;;;14.20;71.40;;;;;;5071596;28;20094;-79
2022/05/11 06:39:53;;;;;;;8.15;2.33;;;14.30;71.40;;;;;;5071123;28;20048;-80
2022/05/11 06:42:21;;;;;;;10.20;2.10;;;14.40;71.20;;;;;;5071682;28;20113;-79
2022/05/11 06:44:49;;;;;;;11.30;3.08;;;14.40;71.10;;;;;;5070700;28;20044;-79
2022/05/11 06:47:20;;;;;;;9.27;2.53;;;14.50;71.00;;;;;;5071244;28;20072;-80
2022/05/11 06:49:47;;;;;;;12.57;3.60;;;14.50;70.90;;;;;;5073836;28;20052;-79
2022/05/11 06:52:17;;;;;;;16.52;5.07;;;14.60;70.70;;;;;;5071131;28;20044;-79
2022/05/11 07:00:18;;;;;;;14.38;5.63;;;14.80;70.30;;;;;;5071111;28;20052;-79
2022/05/11 07:02:44;;;;;;;15.38;6.47;;;14.80;70.20;;;;;;5069528;28;20076;-80
2022/05/11 07:05:12;;;;;;;19.85;7.97;;;14.90;70.10;;;;;;5072992;28;20522;-80
2022/05/11 07:07:40;;;;;;;20.33;10.18;;;14.90;70.00;;;;;;5074366;28;20075;-79
2022/05/11 07:10:07;;;;;;;22.27;9.70;;;15.00;69.80;;;;;;5074635;28;20049;-80
2022/05/11 07:12:37;;;;;;;25.85;14.63;;;15.00;69.70;;;;;;5075135;28;20057;-79
2022/05/11 07:15:08;;;;;;;31.60;15.18;;;15.10;69.60;;;;;;5074493;28;20472;-79
2022/05/11 07:17:42;;;;;;;29.00;13.93;;;15.20;69.40;;;;;;5054826;28;20052;-79
2022/05/11 07:20:13;;;;;;;30.63;16.90;;;15.20;69.30;;;;;;5086422;28;20088;-80
2022/05/11 07:22:40;;;;;;;30.90;14.48;;;15.30;69.10;;;;;;5089873;28;20460;-79
2022/05/11 07:25:13;;;;;;;30.65;13.52;;;15.30;69.00;;;;;;5077840;28;20049;-79
2022/05/11 07:27:43;;;;;;;22.63;11.70;;;15.40;68.80;;;;;;5074827;28;20048;-80
2022/05/11 07:30:13;;;;;;;21.10;10.32;;;15.40;68.60;;;;;;5076406;28;20309;-79
2022/05/11 07:32:40;;;;;;;22.38;9.60;;;15.50;68.50;;;;;;5070793;28;20110;-80
2022/05/11 07:35:07;;;;;;;22.23;7.47;;;15.50;68.30;;;;;;5077334;28;20045;-79
2022/05/11 07:37:34;;;;;;;16.75;7.63;;;15.60;68.10;;;;;;5075086;28;20045;-79
2022/05/11 07:40:03;;;;;;;14.68;5.93;;;15.60;67.90;;;;;;5075826;28;20044;-79
2022/05/11 07:42:30;;;;;;;14.13;5.28;;;15.70;67.70;;;;;;5074510;28;20048;-80
2022/05/11 07:44:58;;;;;;;13.23;4.50;;;15.80;67.60;;;;;;5072881;28;20056;-79
2022/05/11 07:47:25;;;;;;;14.80;5.38;;;15.80;67.50;;;;;;5072494;28;20044;-79
2022/05/11 07:49:51;;;;;;;13.75;4.20;;;15.90;67.40;;;;;;5077236;28;20045;-80
2022/05/11 07:52:19;;;;;;;12.00;4.57;;;15.90;67.20;;;;;;5075309;28;20476;-81
2022/05/11 07:54:46;;;;;;;9.68;4.13;;;16.00;67.00;;;;;;5074078;28;20529;-80
2022/05/11 07:59:59;;;;;;;14.63;4.38;;;16.10;66.60;;;;;;5072568;28;20048;-80
2022/05/11 08:02:28;;;;;;;13.13;5.18;;;16.20;66.50;;;;;;5072228;28;20048;-80
2022/05/11 08:05:00;;;;;;;13.13;4.05;;;16.30;66.40;;;;;;5090225;28;20047;-80
2022/05/11 08:07:34;;;;;;;12.77;3.55;;;16.40;66.30;;;;;;5073904;28;20049;-80
2022/05/11 08:10:10;;;;;;;10.25;3.10;;;16.40;66.10;;;;;;5075543;28;20051;-80
2022/05/11 08:12:37;;;;;;;8.90;3.60;;;16.50;65.90;;;;;;5073902;28;20040;-80
2022/05/11 08:15:06;;;;;;;9.93;3.85;;;16.60;65.70;;;;;;5073630;28;20048;-80
2022/05/11 08:17:34;;;;;;;7.97;2.53;;;16.60;65.60;;;;;;5069830;28;20110;-80
2022/05/11 08:20:07;;;;;;;8.63;2.70;;;16.70;65.40;;;;;;5077328;28;20068;-80
2022/05/11 08:22:35;;;;;;;10.93;2.75;;;16.80;65.20;;;;;;5085744;28;20055;-80
2022/05/11 08:25:02;;;;;;;7.57;2.88;;;16.90;65.00;;;;;;5078607;28;20514;-80
2022/05/11 08:27:29;;;;;;;9.45;3.08;;;16.90;64.90;;;;;;5073405;28;20048;-80
2022/05/11 08:35:59;;;;;;;8.77;3.20;;;17.20;64.40;;;;;;5059285;28;20071;-80
2022/05/11 08:38:33;;;;;;;8.30;2.88;;;17.30;64.30;;;;;;5071510;28;20048;-80
2022/05/11 08:41:39;;;;;;;9.15;2.55;;;17.40;64.10;;;;;;5077616;28;20048;-79
2022/05/11 08:44:14;;;;;;;10.68;3.13;;;17.40;64.00;;;;;;5026485;28;20176;-80
2022/05/11 08:47:08;;;;;;;9.57;2.33;;;17.50;63.90;;;;;;5015377;28;20628;-79
2022/05/11 08:49:46;;;;;;;7.28;2.58;;;17.60;63.70;;;;;;5014688;28;20046;-80
2022/05/11 08:52:31;;;;;;;10.27;2.53;;;17.70;63.60;;;;;;5013934;28;20042;-80
2022/05/11 08:55:07;;;;;;;9.60;2.40;;;17.90;63.50;;;;;;4997524;28;20053;-79
2022/05/11 08:57:36;;;;;;;12.75;2.15;;;17.90;63.40;;;;;;5013576;28;20120;-80
2022/05/11 09:00:10;;;;;;;9.65;2.50;;;18.00;63.20;;;;;;5013142;28;20053;-80
2022/05/11 09:02:50;;;;;;;10.43;2.30;;;18.10;63.00;;;;;;4994679;28;20128;-79
2022/05/11 09:05:20;;;;;;;8.73;2.47;;;18.20;62.80;;;;;;5011597;28;20054;-79
2022/05/11 09:07:49;;;;;;;9.88;2.33;;;18.40;62.70;;;;;;5015524;28;20054;-80
2022/05/11 09:10:36;;;;;;;5.32;2.00;;;18.40;62.50;;;;;;5014011;28;20100;-79
2022/05/11 09:13:10;;;;;;;8.82;2.63;;;18.40;62.30;;;;;;5014271;28;20108;-80
2022/05/11 09:15:47;;;;;;;7.78;2.08;;;18.60;62.10;;;;;;5014058;28;20512;-80
2022/05/11 09:18:16;;;;;;;6.35;1.90;;;18.60;62.10;;;;;;5044004;28;20050;-80
2022/05/11 09:21:09;;;;;;;8.00;1.95;;;18.70;61.90;;;;;;5069219;28;20048;-80
2022/05/11 09:23:41;;;;;;;6.68;2.00;;;18.80;61.80;;;;;;5053211;28;20040;-80
2022/05/11 09:26:16;;;;;;;7.53;2.13;;;18.80;61.70;;;;;;5084621;28;20048;-81
2022/05/11 09:28:45;;;;;;;7.72;2.00;;;18.90;61.50;;;;;;5076448;28;20052;-81
2022/05/11 09:31:24;;;;;;;5.97;2.03;;;18.90;61.50;;;;;;5072400;28;20045;-81
2022/05/11 09:34:01;;;;;;;7.63;1.88;;;18.90;61.30;;;;;;5072638;28;20433;-81
2022/05/11 09:37:14;;;;;;;6.30;1.85;;;19.00;61.20;;;;;;5072176;28;20090;-82
2022/05/11 09:39:52;;;;;;;8.73;2.00;;;19.10;61.20;;;;;;5072587;28;20721;-82
2022/05/11 09:42:32;;;;;;;6.78;1.90;;;19.20;61.20;;;;;;5074297;28;20073;-82
2022/05/11 09:45:00;;;;;;;6.45;2.10;;;19.20;61.10;;;;;;5071418;28;20122;-82
2022/05/11 09:47:34;;;;;;;7.25;2.17;;;19.30;61.10;;;;;;5070745;28;20045;-82
2022/05/11 09:50:17;;;;;;;;;;;19.30;61.00;;;;;;5076920;28;20056;-81
2022/05/11 09:52:45;;;;;;;10.10;2.20;;;19.40;60.90;;;;;;5076322;28;19920;-81
2022/05/11 09:55:25;;;;;;;5.28;1.88;;;19.40;60.80;;;;;;5074246;28;20052;-82
2022/05/11 09:57:59;;;;;;;6.32;1.83;;;19.50;60.70;;;;;;5072554;28;20045;-82
2022/05/11 10:00:40;;;;;;;4.93;1.98;;;19.60;60.60;;;;;;5072331;28;20117;-83
2022/05/11 10:03:21;;;;;;;5.45;1.95;;;19.70;60.60;;;;;;5073524;28;20518;-81
2022/05/11 10:05:51;;;;;;;5.75;1.95;;;19.80;60.50;;;;;;5055287;28;20491;-82
2022/05/11 10:08:27;;;;;;;6.03;2.30;;;19.90;60.40;;;;;;5072401;28;20491;-81
2022/05/11 10:11:06;;;;;;;6.40;2.15;;;19.90;60.30;;;;;;5075528;28;20094;-82
2022/05/11 10:13:42;;;;;;;7.43;2.10;;;20.00;60.20;;;;;;5074703;28;20053;-82
2022/05/11 10:22:38;;;;;;;7.78;2.28;;;20.40;60.00;;;;;;5072064;28;20044;-82
2022/05/11 10:25:21;;;;;;;9.15;2.53;;;20.40;59.90;;;;;;5072178;28;20564;-82
2022/05/11 10:28:14;;;;;;;8.27;2.75;;;20.60;59.80;;;;;;5073777;28;20102;-82
2022/05/11 10:31:26;;;;;;;4.97;2.13;;;20.70;59.70;;;;;;5071909;28;20073;-81
2022/05/11 10:34:22;;;;;;;6.95;2.40;;;20.80;59.50;;;;;;5032706;28;20525;-82
2022/05/11 10:37:02;;;;;;;6.20;2.45;;;20.90;59.40;;;;;;5032636;28;20566;-82
2022/05/11 10:39:40;;;;;;;7.07;2.53;;;20.90;59.30;;;;;;5032589;28;20519;-82
2022/05/11 10:42:09;;;;;;;7.20;2.30;;;21.00;59.10;;;;;;5033153;28;20491;-82
2022/05/11 10:44:56;;;;;;;9.65;2.78;;;21.10;59.00;;;;;;5032589;28;20052;-83
2022/05/11 10:47:38;;;;;;;6.35;2.25;;;21.20;58.90;;;;;;5046763;28;20052;-82
2022/05/11 10:50:11;;;;;;;5.28;2.58;;;21.30;58.70;;;;;;5045665;28;20049;-82
2022/05/11 10:53:03;;;;;;;6.40;2.40;;;21.30;58.60;;;;;;5036781;28;20067;-82
2022/05/11 10:56:18;;;;;;;7.72;3.10;;;21.40;58.50;;;;;;5036375;28;20053;-82
2022/05/11 10:58:56;;;;;;;;;;;21.50;58.50;;;;;;4978996;28;20647;-83
2022/05/11 11:01:29;;;;;;;7.53;2.78;;;21.50;58.40;;;;;;4977013;28;19945;-82
2022/05/11 11:04:23;;;;;;;6.00;2.80;;;21.60;58.40;;;;;;4977469;28;20065;-83
2022/05/11 11:07:14;;;;;;;8.15;2.58;;;21.70;58.20;;;;;;4977332;28;20043;-83
2022/05/11 11:10:07;;;;;;;8.68;2.45;;;21.70;58.10;;;;;;5009701;28;20045;-83
2022/05/11 11:12:55;;;;;;;8.32;2.70;;;21.90;58.00;;;;;;5036321;28;20054;-83
2022/05/11 11:15:42;;;;;;;5.90;2.35;;;21.90;57.90;;;;;;5035926;28;20412;-83
2022/05/11 11:18:13;;;;;;;10.88;2.58;;;22.00;57.90;;;;;;5036039;28;20095;-83
2022/05/11 11:20:43;;;;;;;6.32;2.60;;;22.10;57.80;;;;;;5032141;28;20105;-83
2022/05/11 11:23:28;;;;;;;5.90;2.33;;;22.20;57.70;;;;;;5035586;28;20049;-83
2022/05/11 11:26:03;;;;;;;8.55;2.97;;;22.30;57.60;;;;;;5037214;28;20501;-83
2022/05/11 11:28:51;;;;;;;5.72;2.60;;;22.40;57.60;;;;;;5035998;28;20084;-84
2022/05/11 11:31:21;;;;;;;10.05;2.90;;;22.40;57.50;;;;;;5030524;28;20049;-82
2022/05/11 11:33:57;;;;;;;7.78;2.50;;;22.50;57.30;;;;;;5036968;28;20128;-83
2022/05/11 11:36:31;;;;;;;5.00;2.40;;;22.60;57.10;;;;;;5065905;28;20052;-83
2022/05/11 11:39:04;;;;;;;8.63;2.42;;;22.70;56.90;;;;;;5073348;28;20048;-83
2022/05/11 11:41:40;;;;;;;6.53;2.67;;;22.80;56.60;;;;;;5071979;28;20106;-83
2022/05/11 11:44:32;;;;;;;5.10;2.70;;;22.90;56.30;;;;;;5086312;28;20040;-83
2022/05/11 11:47:35;;;;;;;8.55;2.63;;;23.00;56.10;;;;;;5086950;28;20039;-82
2022/05/11 11:50:04;;;;;;;7.60;2.70;;;23.10;55.70;;;;;;5078947;28;20045;-82
2022/05/11 11:52:35;;;;;;;6.97;2.60;;;23.20;55.50;;;;;;5074775;28;20052;-83
2022/05/11 11:55:32;;;;;;;7.57;2.80;;;23.20;55.20;;;;;;5073717;28;20048;-83
2022/05/11 11:58:27;;;;;;;8.45;2.50;;;23.30;55.00;;;;;;5072506;28;20041;-83
2022/05/11 12:01:06;;;;;;;6.10;2.85;;;23.40;54.70;;;;;;5074507;28;20090;-83
2022/05/11 12:03:37;;;;;;;6.32;2.50;;;23.50;54.50;;;;;;5074483;28;20081;-83
2022/05/11 12:17:26;;;;;;;7.22;2.72;;;23.80;53.20;;;;;;5086447;28;20048;-82
2022/05/11 12:19:58;;;;;;;5.72;2.45;;;23.90;53.00;;;;;;5077028;28;20056;-82
2022/05/11 12:22:26;;;;;;;6.70;2.53;;;24.00;52.90;;;;;;5074198;28;20494;-82
2022/05/11 12:25:21;;;;;;;7.07;2.28;;;24.10;52.80;;;;;;5074020;28;20048;-83
2022/05/11 12:27:50;;;;;;;11.63;2.45;;;24.20;52.60;;;;;;5070082;28;20048;-82
2022/05/11 12:30:16;;;;;;;6.18;2.15;;;24.20;52.40;;;;;;5075555;28;20048;-82
2022/05/11 12:32:57;;;;;;;8.50;2.60;;;24.30;52.10;;;;;;5070392;28;20580;-83
2022/05/11 12:35:41;;;;;;;4.90;2.13;;;24.30;51.90;;;;;;5072717;28;20094;-83
2022/05/11 12:38:13;;;;;;;8.50;2.78;;;24.40;51.70;;;;;;5085559;28;20502;-83
2022/05/11 12:40:43;;;;;;;4.75;2.15;;;24.50;51.50;;;;;;5077138;28;20127;-82
2022/05/11 12:43:32;;;;;;;6.47;2.20;;;24.50;51.30;;;;;;5075512;28;20084;-82
2022/05/11 12:46:12;;;;;;;5.20;2.15;;;24.60;50.90;;;;;;5073666;28;20044;-82
2022/05/11 12:48:51;;;;;;;6.90;2.50;;;24.70;50.80;;;;;;5073602;28;20052;-83
2022/05/11 12:51:31;;;;;;;4.68;2.15;;;24.70;50.60;;;;;;5073619;28;20105;-82
2022/05/11 12:54:02;;;;;;;7.55;2.33;;;24.80;50.40;;;;;;5072070;28;20048;-82
2022/05/11 12:56:32;;;;;;;6.70;2.60;;;24.80;50.30;;;;;;5070657;28;20384;-83
2022/05/11 12:59:19;;;;;;;6.43;2.50;;;24.90;50.20;;;;;;5077244;28;20655;-82
2022/05/11 13:01:46;;;;;;;6.80;2.42;;;24.90;50.10;;;;;;5077323;28;20468;-83
2022/05/11 13:04:24;;;;;;;8.52;2.78;;;24.90;50.00;;;;;;5073594;28;20049;-83
2022/05/11 13:06:55;;;;;;;5.70;2.33;;;25.00;49.80;;;;;;5073374;28;20044;-83
2022/05/11 13:09:43;;;;;;;7.65;2.20;;;25.10;49.70;;;;;;5074943;28;20110;-83
2022/05/11 13:12:13;;;;;;;5.93;2.50;;;25.10;49.60;;;;;;5072863;28;20488;-83
2022/05/11 13:15:09;;;;;;;4.90;1.88;;;25.10;49.50;;;;;;5069373;28;20049;-83
2022/05/11 13:17:49;;;;;;;8.20;2.30;;;25.20;49.40;;;;;;5044372;28;20501;-82
2022/05/11 13:20:19;;;;;;;6.43;2.28;;;25.20;49.30;;;;;;5084528;28;20121;-82
2022/05/11 13:22:51;;;;;;;5.43;2.03;;;25.30;49.20;;;;;;5074906;28;20044;-83
2022/05/11 13:25:44;;;;;;;5.97;2.20;;;25.40;49.10;;;;;;5072456;28;20495;-83
2022/05/11 13:28:21;;;;;;;6.43;2.17;;;25.40;49.00;;;;;;5072887;28;20059;-82
2022/05/11 13:30:50;;;;;;;7.03;1.98;;;25.40;48.90;;;;;;5072743;28;20036;-83
2022/05/11 13:33:40;;;;;;;7.50;2.28;;;25.40;48.80;;;;;;5072820;28;20055;-83
2022/05/11 13:36:12;;;;;;;6.32;2.35;;;25.50;48.70;;;;;;5074007;28;20047;-83
2022/05/11 13:38:58;;;;;;;5.47;1.73;;;25.50;48.60;;;;;;5053317;28;20110;-83
2022/05/11 13:41:40;;;;;;;7.10;2.33;;;25.60;48.40;;;;;;5071162;28;20086;-83
2022/05/11 13:44:13;;;;;;;5.40;2.10;;;25.60;48.40;;;;;;5083352;28;20502;-83
2022/05/11 13:49:51;;;;;;;5.63;1.80;;;25.70;48.10;;;;;;5075170;28;20049;-83
2022/05/11 13:52:51;;;;;;;7.32;1.83;;;25.70;48.00;;;;;;5072475;28;20464;-83
2022/05/11 13:55:36;;;;;;;4.53;1.70;;;25.70;47.90;;;;;;5072086;28;20048;-83
2022/05/11 13:58:33;;;;;;;6.82;1.50;;;25.80;47.80;;;;;;5072349;28;20094;-83
2022/05/11 14:01:09;;;;;;;4.43;1.55;;;25.80;47.70;;;;;;5072250;28;20048;-83
2022/05/11 14:03:50;;;;;;;6.70;1.60;;;25.80;47.60;;;;;;5072203;28;20097;-83